Time;durP1;ratioP1;P1;durP2;ratioP2;P2;SDS_P1;SDS_P2;PMS_P1;PMS_P2;Temp;Humidity;BMP_temperature;BMP_pressure;BME280_temperature;BME280_humidity;BME280_pressure;Samples;Min_cycle;Max_cycle;Signal;HPM_P1;HPM_P2
2022/03/18 00:02:04;;;;;;;10.45;4.60;;;;;;;5.64;61.13;103814.28;6123823;23;20394;-62
2022/03/18 00:04:30;;;;;;;8.38;4.18;;;;;;;5.61;61.96;103826.25;6124149;23;20036;-63
2022/03/18 00:06:56;;;;;;;8.85;4.47;;;;;;;5.67;60.72;103824.13;6124202;23;20526;-63
2022/03/18 00:09:21;;;;;;;10.07;4.30;;;;;;;5.72;60.59;103825.41;6099512;23;20010;-63
2022/03/18 00:11:47;;;;;;;9.30;5.47;;;;;;;5.72;60.22;103826.31;6123937;23;20012;-62
2022/03/18 00:14:13;;;;;;;11.35;4.22;;;;;;;5.63;61.20;103829.94;6124047;23;20454;-63
2022/03/18 00:16:38;;;;;;;13.70;4.35;;;;;;;5.68;60.81;103839.06;6123941;23;20020;-63
2022/03/18 00:19:04;;;;;;;8.52;4.30;;;;;;;5.65;60.96;103836.19;6123756;23;20073;-62
2022/03/18 00:21:29;;;;;;;7.97;4.00;;;;;;;5.71;61.01;103847.19;6123815;23;20085;-62
2022/03/18 00:23:55;;;;;;;11.55;4.70;;;;;;;5.73;60.62;103843.88;6123948;23;20009;-62
2022/03/18 00:26:21;;;;;;;8.13;3.88;;;;;;;5.78;60.25;103846.84;6123913;23;20010;-63
2022/03/18 00:28:47;;;;;;;7.07;4.40;;;;;;;5.78;60.83;103844.22;6123927;23;20017;-62
2022/03/18 00:31:12;;;;;;;8.25;4.25;;;;;;;5.72;60.78;103843.75;6171285;23;20012;-63
2022/03/18 00:33:38;;;;;;;8.70;5.00;;;;;;;5.74;60.98;103836.94;6246054;22;20054;-62
2022/03/18 00:36:04;;;;;;;9.48;4.30;;;;;;;5.73;60.92;103842.97;6246001;22;20004;-63
2022/03/18 00:38:31;;;;;;;13.23;4.70;;;;;;;5.70;60.85;103841.03;6245906;22;20000;-63
2022/03/18 00:40:58;;;;;;;9.00;4.75;;;;;;;5.53;60.36;103837.06;6245876;23;20052;-63
2022/03/18 00:43:23;;;;;;;9.15;4.53;;;;;;;5.42;61.73;103842.25;6245500;22;20015;-63
2022/03/18 00:45:49;;;;;;;11.07;5.03;;;;;;;5.30;61.25;103849.13;6245053;22;20008;-63
2022/03/18 00:53:43;;;;;;;11.40;5.13;;;;;;;5.13;62.83;103853.91;6245840;23;20023;-63
2022/03/18 00:56:09;;;;;;;7.78;3.85;;;;;;;5.12;62.41;103859.97;6245758;22;20341;-63
2022/03/18 00:58:34;;;;;;;8.98;4.35;;;;;;;5.17;62.13;103858.63;6245852;22;20381;-63
2022/03/18 01:01:00;;;;;;;11.48;4.65;;;;;;;5.20;60.90;103861.50;6245814;22;20062;-63
2022/03/18 01:03:25;;;;;;;9.38;3.95;;;;;;;5.16;61.76;103866.38;6245820;23;20434;-63
2022/03/18 01:05:53;;;;;;;13.30;4.95;;;;;;;5.05;61.96;103867.19;6245714;22;20028;-63
2022/03/18 01:08:24;;;;;;;9.85;4.43;;;;;;;5.00;62.64;103875.59;6245909;22;20004;-63
2022/03/18 01:10:50;;;;;;;10.00;4.70;;;;;;;4.94;62.77;103868.94;6245576;22;20444;-63
2022/03/18 01:13:15;;;;;;;10.90;4.80;;;;;;;4.98;61.91;103884.13;6246063;22;20004;-63
2022/03/18 01:15:41;;;;;;;9.23;4.95;;;;;;;5.01;62.52;103885.31;6245809;22;20087;-63
2022/03/18 01:18:06;;;;;;;11.93;4.88;;;;;;;5.02;61.50;103879.28;6246049;22;20004;-63
2022/03/18 01:20:31;;;;;;;10.60;4.95;;;;;;;5.09;61.76;103883.28;6245682;22;20410;-63
2022/03/18 01:22:57;;;;;;;10.05;4.85;;;;;;;5.11;61.04;103876.50;6246319;22;20471;-63
2022/03/18 01:25:23;;;;;;;11.07;4.95;;;;;;;5.10;61.55;103876.38;6245668;22;20444;-62
2022/03/18 01:27:48;;;;;;;9.55;4.80;;;;;;;5.11;61.63;103881.72;6246003;22;20000;-63
2022/03/18 01:30:14;;;;;;;9.65;4.97;;;;;;;5.15;61.68;103872.41;6245697;22;20425;-63
2022/03/18 01:32:40;;;;;;;9.93;4.57;;;;;;;5.17;61.72;103876.97;6247587;22;20418;-63
2022/03/18 01:35:06;;;;;;;7.05;4.30;;;;;;;5.06;61.54;103867.34;6247646;22;20079;-63
2022/03/18 01:37:31;;;;;;;10.07;4.72;;;;;;;4.82;62.21;103875.78;6248117;22;20039;-63
2022/03/18 01:39:57;;;;;;;7.68;5.00;;;;;;;4.69;62.85;103884.34;6247639;22;20486;-63
2022/03/18 01:42:23;;;;;;;9.15;4.88;;;;;;;4.59;63.09;103876.50;6247549;22;20381;-63
2022/03/18 01:44:48;;;;;;;12.15;4.75;;;;;;;4.56;63.29;103878.88;6247683;22;20008;-63
2022/03/18 01:47:14;;;;;;;9.02;5.10;;;;;;;4.58;63.61;103874.66;6247592;22;20062;-63
2022/03/18 01:49:40;;;;;;;14.63;5.22;;;;;;;4.67;63.10;103880.69;6247792;22;20014;-63
2022/03/18 01:52:10;;;;;;;8.10;4.35;;;;;;;4.70;62.64;103886.16;6247557;22;20000;-62
2022/03/18 01:54:45;;;;;;;9.45;4.40;;;;;;;4.68;62.75;103891.28;6247600;22;20000;-63
2022/03/18 01:57:12;;;;;;;8.20;4.47;;;;;;;4.63;63.73;103881.22;6247594;22;20000;-62
2022/03/18 01:59:38;;;;;;;11.80;4.55;;;;;;;4.50;63.84;103892.38;6247549;22;20084;-63
2022/03/18 02:02:04;;;;;;;8.32;4.68;;;;;;;4.52;63.09;103885.53;6247031;22;20441;-63
2022/03/18 02:04:30;;;;;;;10.27;4.78;;;;;;;4.62;63.82;103869.81;6247525;22;20031;-63
2022/03/18 02:06:56;;;;;;;10.65;5.15;;;;;;;4.51;63.95;103865.38;6247511;22;20024;-63
2022/03/18 02:09:23;;;;;;;8.30;4.43;;;;;;;4.53;64.03;103879.50;6247669;22;20393;-63
2022/03/18 02:11:49;;;;;;;12.63;4.60;;;;;;;4.47;63.77;103874.69;6247230;22;20071;-63
2022/03/18 02:14:28;;;;;;;9.35;4.80;;;;;;;4.43;62.98;103879.53;6247379;22;20004;-63
2022/03/18 02:16:54;;;;;;;11.98;4.68;;;;;;;4.30;63.10;103892.38;6247430;22;20008;-63
2022/03/18 02:19:19;;;;;;;8.60;4.22;;;;;;;4.22;62.96;103895.25;6247343;23;20082;-63
2022/03/18 02:21:48;;;;;;;8.52;5.10;;;;;;;4.17;64.09;103895.66;6245586;23;20083;-63
2022/03/18 02:24:13;;;;;;;9.45;4.80;;;;;;;4.15;63.50;103905.03;6247205;22;20008;-63
2022/03/18 02:26:39;;;;;;;9.95;5.20;;;;;;;4.11;64.25;103902.94;6247372;22;20054;-62
2022/03/18 02:29:05;;;;;;;11.55;5.05;;;;;;;4.06;64.72;103901.66;6248306;22;20008;-63
2022/03/18 02:31:31;;;;;;;12.70;5.20;;;;;;;4.05;64.58;103903.34;6247467;22;20023;-63
2022/03/18 02:33:57;;;;;;;10.27;5.15;;;;;;;4.08;64.76;103895.78;6247577;22;20413;-63
2022/03/18 02:36:22;;;;;;;10.55;4.60;;;;;;;4.19;64.07;103901.91;6248010;22;20090;-62
2022/03/18 02:38:48;;;;;;;10.38;5.10;;;;;;;4.26;63.89;103891.19;6247615;22;20050;-62
2022/03/18 02:41:13;;;;;;;8.52;4.80;;;;;;;4.21;64.08;103903.88;6246916;22;20008;-63
2022/03/18 02:43:39;;;;;;;10.50;4.55;;;;;;;4.17;64.74;103914.88;6246538;22;20032;-63
2022/03/18 02:46:05;;;;;;;12.32;5.40;;;;;;;4.13;64.00;103922.34;6246983;22;20004;-63
2022/03/18 02:48:31;;;;;;;8.23;4.47;;;;;;;4.24;64.65;103918.94;6247383;22;20079;-62
2022/03/18 02:50:56;;;;;;;13.50;5.60;;;;;;;4.36;63.69;103917.34;6246862;22;20105;-63
2022/03/18 02:53:22;;;;;;;8.43;4.63;;;;;;;4.44;63.42;103915.41;6246956;22;20004;-62
2022/03/18 02:55:48;;;;;;;9.02;4.78;;;;;;;4.42;63.39;103914.38;6247222;22;20007;-63
2022/03/18 02:58:14;;;;;;;8.48;4.72;;;;;;;4.34;62.52;103913.72;6246790;22;20012;-63
2022/03/18 03:00:39;;;;;;;6.85;4.15;;;;;;;4.24;63.22;103911.09;6246963;22;20448;-63
2022/03/18 03:03:05;;;;;;;8.15;4.50;;;;;;;4.12;63.81;103912.66;6246697;22;20329;-63
2022/03/18 03:08:14;;;;;;;9.02;4.95;;;;;;;3.93;64.26;103931.06;6246715;23;20393;-63
2022/03/18 03:10:42;;;;;;;10.55;5.63;;;;;;;3.93;64.00;103936.28;6246339;22;20004;-63
2022/03/18 03:13:10;;;;;;;8.93;5.30;;;;;;;3.90;63.60;103933.44;6246829;23;20050;-63
2022/03/18 03:15:37;;;;;;;8.82;4.90;;;;;;;3.91;64.23;103935.25;6246865;22;20027;-63
2022/03/18 03:18:02;;;;;;;8.05;4.80;;;;;;;3.88;64.29;103938.50;6246919;22;20026;-63
2022/03/18 03:20:28;;;;;;;11.65;4.95;;;;;;;3.86;64.75;103939.19;6246907;22;20430;-62
2022/03/18 03:22:54;;;;;;;11.80;5.03;;;;;;;3.85;64.67;103934.69;6246695;22;20023;-63
2022/03/18 03:25:19;;;;;;;11.25;5.53;;;;;;;3.84;64.44;103944.25;6246510;22;20011;-63
2022/03/18 03:27:45;;;;;;;9.60;4.97;;;;;;;3.88;64.37;103942.81;6246677;22;20342;-63
2022/03/18 03:30:11;;;;;;;10.40;4.65;;;;;;;3.92;64.70;103940.59;6246615;22;20004;-63
2022/03/18 03:32:38;;;;;;;9.60;5.03;;;;;;;3.84;64.12;103953.78;6246927;22;20058;-62
2022/03/18 03:35:05;;;;;;;12.57;5.38;;;;;;;3.65;64.07;103948.66;6246635;22;20004;-62
2022/03/18 03:37:30;;;;;;;13.15;4.82;;;;;;;3.57;64.69;103962.75;6246571;22;20441;-63
2022/03/18 03:39:56;;;;;;;10.73;5.28;;;;;;;3.48;64.43;103955.00;6246149;22;20011;-63
2022/03/18 03:42:21;;;;;;;10.48;4.97;;;;;;;3.40;64.92;103951.69;6246340;22;20079;-63
2022/03/18 03:44:47;;;;;;;9.75;4.93;;;;;;;3.35;65.52;103949.44;6246014;22;20453;-62
2022/03/18 03:47:14;;;;;;;8.85;5.00;;;;;;;3.22;65.52;103964.03;6245323;23;20100;-63
2022/03/18 03:49:40;;;;;;;10.57;5.40;;;;;;;3.16;65.97;103968.66;6246601;22;20000;-62
2022/03/18 03:52:08;;;;;;;10.52;5.07;;;;;;;3.22;65.64;103970.94;6246496;22;20011;-63
2022/03/18 03:54:37;;;;;;;10.30;5.22;;;;;;;3.30;65.87;103971.63;6246450;22;20004;-62
2022/03/18 03:57:04;;;;;;;10.90;5.25;;;;;;;3.35;64.80;103965.13;6246578;22;20007;-63
2022/03/18 03:59:29;;;;;;;9.07;4.90;;;;;;;3.45;65.47;103965.16;6246701;22;20008;-63
2022/03/18 04:01:54;;;;;;;11.48;5.20;;;;;;;3.53;65.23;103971.09;6245902;22;20408;-62
2022/03/18 04:04:20;;;;;;;12.45;5.18;;;;;;;3.52;64.62;103980.63;6246356;22;19999;-63
2022/03/18 04:06:46;;;;;;;10.73;5.20;;;;;;;3.47;65.36;103985.44;6246257;22;20054;-63
2022/03/18 04:09:12;;;;;;;8.63;4.93;;;;;;;3.43;65.08;103988.56;6246030;22;20067;-63
2022/03/18 04:11:38;;;;;;;12.23;5.30;;;;;;;3.45;64.85;104000.06;6246243;22;20433;-63
2022/03/18 04:14:03;;;;;;;10.30;6.05;;;;;;;3.46;64.80;103999.28;6246297;22;20449;-63
2022/03/18 04:16:28;;;;;;;9.55;5.15;;;;;;;3.47;64.17;103990.69;6246189;22;20004;-62
2022/03/18 04:18:54;;;;;;;8.45;5.05;;;;;;;3.54;64.29;104006.91;6246187;22;20329;-63
2022/03/18 04:21:19;;;;;;;11.23;5.28;;;;;;;3.55;64.38;104001.81;6246520;22;20054;-62
2022/03/18 04:23:45;;;;;;;12.48;5.60;;;;;;;3.54;64.42;104005.19;6246069;22;20000;-63
2022/03/18 04:26:10;;;;;;;14.95;5.45;;;;;;;3.51;64.06;104012.75;6246082;22;20004;-63
2022/03/18 04:28:36;;;;;;;14.27;5.40;;;;;;;3.46;64.85;104011.44;6246000;23;20008;-62
2022/03/18 04:31:01;;;;;;;10.80;5.20;;;;;;;3.45;65.09;104018.38;6245968;22;20160;-62
2022/03/18 04:33:27;;;;;;;8.90;5.22;;;;;;;3.48;64.59;104016.03;6246133;22;20000;-62
2022/03/18 04:35:52;;;;;;;10.45;5.43;;;;;;;3.55;64.34;104013.97;6244478;23;20000;-62
2022/03/18 04:38:18;;;;;;;12.10;5.28;;;;;;;3.53;64.69;104016.44;6245941;22;20330;-62
2022/03/18 04:40:44;;;;;;;11.18;5.13;;;;;;;3.48;64.53;104026.50;6244338;23;20012;-63
2022/03/18 04:43:09;;;;;;;8.63;5.28;;;;;;;3.47;65.29;104023.75;6245907;22;20008;-62
2022/03/18 04:45:35;;;;;;;11.65;4.90;;;;;;;3.38;65.28;104015.97;6246000;22;20000;-62
2022/03/18 04:48:01;;;;;;;7.00;4.53;;;;;;;3.22;65.88;104020.59;6246040;22;20005;-62
2022/03/18 04:50:27;;;;;;;10.80;4.85;;;;;;;3.17;66.32;104020.19;6245847;22;20330;-62
2022/03/18 04:52:53;;;;;;;6.75;4.50;;;;;;;3.11;66.14;104018.69;6245838;22;20000;-63
2022/03/18 04:55:18;;;;;;;7.95;4.60;;;;;;;3.05;65.91;104025.97;6245875;22;20004;-62
2022/03/18 04:57:43;;;;;;;10.60;5.15;;;;;;;2.97;66.31;104025.25;6245784;22;20004;-63
2022/03/18 05:00:09;;;;;;;9.73;4.97;;;;;;;2.97;65.84;104035.69;6246259;22;20007;-62
2022/03/18 05:02:36;;;;;;;9.70;5.55;;;;;;;3.06;66.25;104031.31;6245456;22;20023;-62
2022/03/18 05:05:03;;;;;;;9.20;5.03;;;;;;;3.12;66.17;104034.50;6246148;22;20058;-62
2022/03/18 05:07:28;;;;;;;9.48;5.13;;;;;;;3.17;66.37;104042.75;6245585;22;20029;-62
2022/03/18 05:09:54;;;;;;;12.43;5.15;;;;;;;3.20;66.46;104043.94;6246024;22;20023;-62
2022/03/18 05:12:20;;;;;;;9.07;4.72;;;;;;;3.24;66.05;104051.28;6245897;22;20011;-63
2022/03/18 05:14:45;;;;;;;12.80;5.20;;;;;;;3.22;65.80;104057.19;6245749;22;20004;-62
2022/03/18 05:17:11;;;;;;;8.70;4.75;;;;;;;3.17;65.98;104054.16;6245783;22;20067;-62
2022/03/18 05:19:38;;;;;;;11.27;5.28;;;;;;;3.14;66.13;104055.56;6246154;22;20292;-62
2022/03/18 05:22:04;;;;;;;9.07;4.90;;;;;;;3.09;65.50;104056.81;6245733;22;20498;-62
2022/03/18 05:24:30;;;;;;;12.70;4.97;;;;;;;3.14;65.95;104064.31;6244150;23;20011;-62
2022/03/18 05:26:57;;;;;;;13.52;5.57;;;;;;;3.18;66.27;104069.03;6245670;22;20071;-63
2022/03/18 05:29:22;;;;;;;9.98;4.82;;;;;;;3.20;66.14;104071.78;6245541;22;20489;-62
2022/03/18 05:31:48;;;;;;;9.43;4.97;;;;;;;3.17;66.25;104059.38;6246101;22;20032;-63
2022/03/18 05:34:14;;;;;;;9.15;5.13;;;;;;;3.10;66.03;104066.50;6246158;22;20091;-62
2022/03/18 05:36:40;;;;;;;7.60;4.75;;;;;;;3.09;66.29;104080.34;6245703;22;20042;-62
2022/03/18 05:39:06;;;;;;;10.40;5.47;;;;;;;3.09;65.94;104072.50;6245676;22;20019;-62
2022/03/18 05:41:32;;;;;;;11.30;5.28;;;;;;;3.10;66.60;104069.09;6245728;22;20083;-62
2022/03/18 05:43:58;;;;;;;8.90;4.97;;;;;;;3.17;66.75;104072.44;6245255;22;20321;-63
2022/03/18 05:46:24;;;;;;;12.18;4.90;;;;;;;3.22;66.01;104076.38;6243051;23;20111;-62
2022/03/18 05:48:49;;;;;;;15.88;7.60;;;;;;;3.29;65.66;104074.31;6245245;22;20031;-62
2022/03/18 05:51:15;;;;;;;10.68;5.00;;;;;;;3.32;65.87;104072.91;6244891;22;20038;-63
2022/03/18 05:53:40;;;;;;;8.63;4.80;;;;;;;3.33;65.69;104069.53;6245032;22;20429;-62
2022/03/18 05:58:53;;;;;;;8.55;4.97;;;;;;;3.30;65.21;104065.69;6245254;23;20014;-62
2022/03/18 06:01:19;;;;;;;8.85;5.18;;;;;;;3.29;65.97;104071.72;6244623;22;20035;-62
2022/03/18 06:03:45;;;;;;;10.60;5.50;;;;;;;3.29;65.55;104083.06;6245333;22;20000;-62
2022/03/18 06:06:13;;;;;;;14.80;5.68;;;;;;;3.33;65.65;104090.44;6244827;22;20030;-62
2022/03/18 06:11:49;;;;;;;11.65;5.55;;;;;;;3.41;65.85;104092.06;6244724;23;20075;-62
2022/03/18 06:14:35;;;;;;;10.25;5.55;;;;;;;3.62;65.54;104100.94;6244964;22;20378;-62
2022/03/18 06:17:05;;;;;;;11.02;5.47;;;;;;;3.74;65.19;104102.06;6244429;22;20041;-62
2022/03/18 06:19:31;;;;;;;11.85;5.10;;;;;;;3.84;64.70;104103.81;6246616;22;20008;-63
2022/03/18 06:21:58;;;;;;;12.90;5.55;;;;;;;3.95;65.50;104113.56;6246395;22;20065;-62
2022/03/18 06:24:24;;;;;;;12.32;6.25;;;;;;;4.08;65.21;104122.53;6246536;22;20000;-62
2022/03/18 06:26:50;;;;;;;11.18;5.82;;;;;;;4.16;65.04;104118.88;6246505;22;20422;-62
2022/03/18 06:29:16;;;;;;;12.23;5.75;;;;;;;4.34;64.04;104125.75;6246734;22;20051;-62
2022/03/18 06:31:41;;;;;;;12.95;5.90;;;;;;;4.47;64.32;104125.13;6246571;22;20011;-61
2022/03/18 06:34:08;;;;;;;11.45;5.78;;;;;;;4.63;64.61;104127.41;6246830;22;20011;-62
2022/03/18 06:36:34;;;;;;;13.73;5.63;;;;;;;4.80;64.76;104126.22;6246290;22;20441;-63
2022/03/18 06:39:00;;;;;;;12.02;5.35;;;;;;;4.97;63.47;104126.94;6246612;22;20000;-62
2022/03/18 06:41:26;;;;;;;12.30;6.15;;;;;;;5.15;63.36;104124.97;6246480;22;20000;-62
2022/03/18 06:43:52;;;;;;;9.93;5.60;;;;;;;5.22;62.70;104119.47;6246412;22;20004;-62
2022/03/18 06:46:19;;;;;;;13.35;6.07;;;;;;;5.36;62.70;104128.50;6246678;22;20422;-62
2022/03/18 06:48:44;;;;;;;12.90;6.97;;;;;;;5.44;62.72;104137.94;6246311;22;20007;-62
2022/03/18 06:51:10;;;;;;;12.85;6.90;;;;;;;5.61;62.89;104134.13;6246407;22;20004;-63
2022/03/18 06:53:36;;;;;;;13.57;6.63;;;;;;;5.77;63.06;104133.66;6246605;22;20011;-62
2022/03/18 06:56:03;;;;;;;16.73;6.63;;;;;;;5.90;62.96;104140.84;6246049;22;20000;-62
2022/03/18 06:58:29;;;;;;;14.40;7.10;;;;;;;6.08;62.07;104139.78;6246301;22;20011;-62
2022/03/18 07:00:54;;;;;;;15.45;6.43;;;;;;;6.29;62.28;104153.72;6246054;22;20397;-62
2022/03/18 07:03:20;;;;;;;13.70;6.75;;;;;;;6.47;62.29;104147.34;6245971;22;20012;-62
2022/03/18 07:05:46;;;;;;;14.25;6.63;;;;;;;6.62;61.57;104141.47;6245870;22;20343;-62
2022/03/18 07:08:12;;;;;;;11.57;6.45;;;;;;;6.76;61.39;104141.78;6246872;22;20032;-62
2022/03/18 07:10:38;;;;;;;15.23;6.75;;;;;;;6.92;61.70;104148.25;6246202;22;20011;-62
2022/03/18 07:13:03;;;;;;;16.73;6.97;;;;;;;7.13;60.71;104149.03;6246167;22;20015;-62
2022/03/18 07:15:29;;;;;;;14.63;7.72;;;;;;;7.35;61.41;104154.22;6246058;22;20004;-63
2022/03/18 07:17:55;;;;;;;13.07;7.38;;;;;;;7.52;61.37;104146.81;6246065;22;20036;-62
2022/03/18 07:20:25;;;;;;;19.88;7.53;;;;;;;7.62;60.97;104143.16;6245613;22;20372;-63
2022/03/18 07:23:10;;;;;;;14.18;7.32;;;;;;;7.78;60.86;104150.50;6245634;22;20445;-63
2022/03/18 07:25:39;;;;;;;13.90;6.93;;;;;;;8.05;60.20;104159.56;6245866;22;20000;-63
2022/03/18 07:28:08;;;;;;;18.23;7.20;;;;;;;8.28;59.43;104163.88;6245612;22;20492;-63
2022/03/18 07:30:35;;;;;;;16.75;7.45;;;;;;;8.56;59.43;104164.19;6245906;22;20000;-62
2022/03/18 07:33:01;;;;;;;19.50;7.03;;;;;;;8.80;59.47;104159.78;6245862;22;20071;-63
2022/03/18 07:35:27;;;;;;;14.07;6.88;;;;;;;9.03;58.76;104157.03;6245679;22;20447;-62
2022/03/18 07:37:52;;;;;;;18.00;7.20;;;;;;;9.40;57.85;104170.16;6245649;22;20023;-62
2022/03/18 07:40:19;;;;;;;16.70;7.05;;;;;;;9.69;58.11;104166.88;6245666;22;20007;-62
2022/03/18 07:42:50;;;;;;;15.95;7.00;;;;;;;9.94;58.87;104172.06;6245624;22;20065;-62
2022/03/18 07:45:32;;;;;;;13.70;7.45;;;;;;;10.23;57.13;104186.28;6246196;22;20318;-62
2022/03/18 07:48:00;;;;;;;15.77;6.63;;;;;;;10.47;55.85;104190.56;6245339;22;20038;-63
2022/03/18 07:50:27;;;;;;;19.35;7.22;;;;;;;10.69;56.70;104199.88;6245519;22;20064;-62
2022/03/18 07:52:59;;;;;;;15.30;8.20;;;;;;;10.89;55.62;104202.06;6245328;22;20437;-62
2022/03/18 07:55:27;;;;;;;14.07;7.80;;;;;;;10.99;54.69;104206.19;6245906;22;20091;-62
2022/03/18 07:57:54;;;;;;;13.02;6.82;;;;;;;11.16;54.36;104208.16;6245471;22;20004;-62
2022/03/18 08:00:21;;;;;;;17.27;6.80;;;;;;;11.45;53.27;104198.47;6245418;22;20027;-63
2022/03/18 08:02:48;;;;;;;12.32;5.72;;;;;;;11.73;52.06;104209.91;6245377;22;20452;-63
2022/03/18 08:05:14;;;;;;;12.93;5.75;;;;;;;11.88;52.39;104206.38;6245689;22;20008;-62
2022/03/18 08:07:40;;;;;;;12.57;5.20;;;;;;;12.03;50.45;104207.25;6245451;22;20366;-63
2022/03/18 08:10:08;;;;;;;10.73;5.25;;;;;;;12.18;50.54;104204.59;6245472;22;20004;-62
2022/03/18 08:12:33;;;;;;;11.10;5.05;;;;;;;12.32;50.54;104214.25;6245778;22;20057;-62
2022/03/18 08:15:02;;;;;;;14.40;5.13;;;;;;;12.31;49.42;104216.84;6245432;22;20036;-62
2022/03/18 08:17:28;;;;;;;18.55;5.15;;;;;;;12.48;49.14;104216.97;6245084;22;20062;-63
2022/03/18 08:19:54;;;;;;;15.75;5.07;;;;;;;12.69;48.84;104219.94;6245104;22;20019;-62
2022/03/18 08:22:21;;;;;;;14.00;5.30;;;;;;;12.95;48.71;104225.78;6245283;22;20011;-63
2022/03/18 08:24:50;;;;;;;13.32;5.88;;;;;;;13.15;48.81;104222.47;6245645;22;20007;-62
2022/03/18 08:27:16;;;;;;;11.98;5.22;;;;;;;13.36;47.76;104221.81;6245439;22;20000;-62
2022/03/18 08:29:42;;;;;;;13.95;5.57;;;;;;;13.48;46.68;104222.47;6245174;22;20103;-62
2022/03/18 08:32:15;;;;;;;15.05;5.13;;;;;;;13.74;47.64;104211.44;6245059;22;20075;-63
2022/03/18 08:34:41;;;;;;;19.05;5.53;;;;;;;13.86;46.72;104218.25;6245316;22;20091;-63
2022/03/18 08:37:07;;;;;;;12.45;4.95;;;;;;;13.95;47.10;104224.03;6245202;22;20302;-62
2022/03/18 08:39:33;;;;;;;13.20;5.25;;;;;;;14.14;46.12;104226.78;6245281;22;20008;-62
2022/03/18 08:41:59;;;;;;;21.77;5.20;;;;;;;14.27;46.11;104230.97;6244850;22;20418;-62
2022/03/18 08:44:24;;;;;;;14.05;5.07;;;;;;;14.66;44.93;104236.47;6245047;22;20050;-64
2022/03/18 08:46:49;;;;;;;18.67;5.30;;;;;;;14.82;44.28;104235.41;6244984;22;20066;-63
2022/03/18 08:49:16;;;;;;;14.20;5.30;;;;;;;15.02;43.93;104243.50;6244919;22;20000;-63
2022/03/18 08:51:42;;;;;;;12.75;5.00;;;;;;;15.09;43.70;104246.47;6245191;22;20004;-63
2022/03/18 08:54:07;;;;;;;11.13;4.80;;;;;;;15.34;42.22;104241.44;6244968;22;20444;-63
2022/03/18 08:56:34;;;;;;;9.25;4.55;;;;;;;15.36;41.20;104247.72;6245586;22;20000;-62
2022/03/18 08:59:03;;;;;;;11.57;4.82;;;;;;;15.54;41.65;104260.97;6245096;22;20011;-63
2022/03/18 09:01:29;;;;;;;14.63;4.90;;;;;;;15.64;40.63;104268.59;6246607;22;20042;-63
2022/03/18 09:03:54;;;;;;;12.43;5.00;;;;;;;15.89;40.49;104269.69;6245577;22;20032;-62
2022/03/18 09:06:20;;;;;;;12.23;4.82;;;;;;;15.81;40.29;104272.00;6245124;22;20007;-63
2022/03/18 09:08:46;;;;;;;11.38;4.50;;;;;;;15.90;39.35;104266.16;6244959;22;20004;-63
2022/03/18 09:11:12;;;;;;;9.57;4.10;;;;;;;16.03;39.19;104265.84;6244801;22;20011;-62
2022/03/18 09:13:37;;;;;;;10.55;4.55;;;;;;;16.25;38.94;104268.56;6245122;22;20008;-63
2022/03/18 09:16:04;;;;;;;12.75;4.88;;;;;;;16.60;37.92;104274.44;6244914;22;20005;-63
2022/03/18 09:18:31;;;;;;;17.20;4.80;;;;;;;16.67;38.79;104283.63;6245197;22;20065;-63
2022/03/18 09:20:57;;;;;;;15.35;4.70;;;;;;;16.68;37.75;104282.78;6242304;23;20091;-64
2022/03/18 09:23:22;;;;;;;9.93;4.40;;;;;;;16.77;37.33;104277.84;6244821;22;20439;-65
2022/03/18 09:25:48;;;;;;;11.15;4.32;;;;;;;16.90;36.65;104279.22;6245371;22;20000;-65
2022/03/18 09:28:14;;;;;;;15.02;4.95;;;;;;;16.96;37.16;104288.41;6244813;22;20004;-65
2022/03/18 09:30:41;;;;;;;12.90;5.03;;;;;;;17.02;36.96;104282.38;6244698;22;20083;-65
2022/03/18 09:33:07;;;;;;;11.55;4.38;;;;;;;17.42;36.13;104289.25;6244904;22;20000;-67
2022/03/18 09:35:34;;;;;;;10.98;4.55;;;;;;;17.44;35.30;104283.13;6244602;22;20015;-65
2022/03/18 09:38:00;;;;;;;11.68;4.40;;;;;;;17.63;34.96;104281.09;6245075;22;20070;-65
2022/03/18 09:40:26;;;;;;;8.98;3.80;;;;;;;17.73;34.42;104284.19;6244747;22;20398;-67
2022/03/18 09:43:00;;;;;;;8.20;4.30;;;;;;;17.85;34.88;104285.50;6244671;22;20000;-65
2022/03/18 09:45:30;;;;;;;14.93;4.60;;;;;;;18.08;33.94;104279.19;6245025;22;20008;-64
2022/03/18 09:47:57;;;;;;;12.95;4.38;;;;;;;18.18;33.01;104281.31;6244816;22;20008;-64
2022/03/18 09:51:18;;;;;;;8.13;3.55;;;;;;;18.31;32.78;104289.78;6244975;22;20083;-62
2022/03/18 09:53:44;;;;;;;11.35;3.70;;;;;;;18.42;30.76;104293.72;6246356;22;20008;-63
2022/03/18 09:56:11;;;;;;;13.25;5.20;;;;;;;18.38;31.06;104292.72;6246888;22;20080;-63
2022/03/18 09:58:37;;;;;;;10.30;3.40;;;;;;;18.43;31.55;104293.78;6247052;22;20000;-62
2022/03/18 10:01:04;;;;;;;9.10;3.30;;;;;;;18.56;32.35;104289.72;6246815;22;20073;-62
2022/03/18 10:03:44;;;;;;;20.55;3.80;;;;;;;18.90;31.51;104297.09;6246540;22;20007;-63
2022/03/18 10:06:11;;;;;;;9.38;3.35;;;;;;;19.09;30.12;104297.66;6245217;23;20031;-63
2022/03/18 10:08:39;;;;;;;12.98;3.65;;;;;;;19.58;29.21;104300.03;6246798;22;20000;-62
2022/03/18 10:11:26;;;;;;;11.70;3.10;;;;;;;19.92;30.95;104301.00;6246793;22;20087;-63
2022/03/18 10:13:57;;;;;;;6.63;3.00;;;;;;;20.17;27.68;104307.91;6246831;22;20084;-62
2022/03/18 10:16:36;;;;;;;8.30;3.20;;;;;;;20.46;29.15;104308.66;6246842;22;20014;-62
2022/03/18 10:19:05;;;;;;;8.27;2.95;;;;;;;20.53;26.80;104302.63;6247030;22;20010;-63
2022/03/18 10:21:31;;;;;;;8.00;2.80;;;;;;;20.63;26.47;104311.78;6246378;22;20023;-62
2022/03/18 10:24:04;;;;;;;8.27;3.17;;;;;;;20.10;26.92;104303.28;6247236;22;20388;-62
2022/03/18 10:26:33;;;;;;;7.50;2.92;;;;;;;20.25;27.14;104306.34;6246957;22;20000;-61
2022/03/18 10:29:00;;;;;;;5.53;2.50;;;;;;;20.29;26.68;104302.88;6246725;22;20422;-62
2022/03/18 10:31:26;;;;;;;8.30;2.72;;;;;;;20.48;26.76;104305.19;6246567;22;20118;-62
2022/03/18 10:39:42;;;;;;;6.82;2.67;;;;;;;20.34;28.04;104298.53;6246751;23;20065;-62
2022/03/18 10:42:11;;;;;;;8.93;3.25;;;;;;;20.65;26.90;104296.63;6246270;22;20011;-63
2022/03/18 10:44:51;;;;;;;11.18;3.33;;;;;;;20.88;27.49;104302.53;6246717;22;20004;-62
2022/03/18 10:47:27;;;;;;;9.13;3.22;;;;;;;20.94;27.78;104303.59;6246452;22;20004;-61
2022/03/18 10:50:29;;;;;;;10.98;3.30;;;;;;;21.44;27.75;104309.19;6246497;22;20079;-62
2022/03/18 10:53:01;;;;;;;8.45;3.00;;;;;;;21.31;24.98;104298.09;6153530;23;20339;-63
2022/03/18 10:55:36;;;;;;;9.00;3.15;;;;;;;20.70;25.35;104300.34;6153723;23;20033;-63
2022/03/18 10:58:03;;;;;;;7.45;2.78;;;;;;;20.19;26.20;104291.00;6153768;23;20032;-62
2022/03/18 11:00:31;;;;;;;6.00;2.70;;;;;;;20.36;26.66;104287.81;6153905;23;20080;-63
2022/03/18 11:02:58;;;;;;;5.63;2.80;;;;;;;20.51;26.08;104296.28;6153575;23;20275;-63
2022/03/18 11:05:26;;;;;;;6.10;2.78;;;;;;;20.97;26.13;104300.97;6153190;23;20068;-62
2022/03/18 11:07:54;;;;;;;7.72;2.90;;;;;;;21.45;25.75;104289.47;6153795;23;20427;-63
2022/03/18 11:13:07;;;;;;;9.98;3.30;;;;;;;21.16;25.96;104291.53;6153758;23;20021;-62
2022/03/18 11:15:38;;;;;;;10.02;3.50;;;;;;;21.19;25.84;104283.50;6153543;23;20006;-63
2022/03/18 11:18:04;;;;;;;8.40;3.40;;;;;;;21.52;25.80;104285.13;6128962;23;20017;-62
2022/03/18 11:20:33;;;;;;;8.93;3.25;;;;;;;21.42;25.28;104283.13;6151478;23;20010;-63
2022/03/18 11:22:59;;;;;;;8.65;3.10;;;;;;;21.48;25.47;104278.78;6153475;23;20009;-62
2022/03/18 11:25:28;;;;;;;12.52;3.58;;;;;;;21.60;25.73;104278.13;6153264;23;20382;-63
2022/03/18 11:27:58;;;;;;;11.25;3.50;;;;;;;21.81;25.65;104293.78;6153501;23;20006;-63
2022/03/18 11:30:31;;;;;;;8.18;3.10;;;;;;;22.12;24.83;104288.94;6225788;23;20004;-63
2022/03/18 11:33:05;;;;;;;9.05;3.22;;;;;;;22.38;25.68;104286.72;6246252;23;20018;-63
2022/03/18 11:35:55;;;;;;;8.45;3.30;;;;;;;22.16;25.42;104285.47;6246269;22;20011;-63
2022/03/18 12:43:07;;;;;;;6.70;3.10;;;;;;;22.39;25.34;104248.09;6210590;23;20096;-64
2022/03/18 12:45:34;;;;;;;10.75;3.28;;;;;;;22.48;25.36;104245.53;6243782;23;20020;-63
2022/03/18 12:48:02;;;;;;;7.38;3.03;;;;;;;22.57;24.95;104240.31;6245124;22;20010;-64
2022/03/18 12:50:42;;;;;;;8.98;3.55;;;;;;;22.89;25.22;104240.75;6245544;23;20035;-63
2022/03/18 12:53:18;;;;;;;9.75;3.17;;;;;;;22.70;24.75;104247.69;6245608;22;20004;-63
2022/03/18 12:55:46;;;;;;;7.20;3.10;;;;;;;22.64;24.71;104239.50;6245360;22;20109;-63